createdAt,value
2023-05-12T00:02:16.563Z,8.50
2023-05-12T00:04:43.947Z,8.75
2023-05-12T00:07:12.460Z,12.00
2023-05-12T00:09:41.586Z,10.75
2023-05-12T00:12:09.698Z,11.00
2023-05-12T00:14:37.218Z,10.25
2023-05-12T00:17:06.668Z,11.50
2023-05-12T00:19:34.758Z,11.75
2023-05-12T00:22:02.725Z,11.25
2023-05-12T00:24:30.682Z,10.00
2023-05-12T00:26:58.081Z,9.25
2023-05-12T00:29:25.531Z,10.50
2023-05-12T00:31:53.099Z,10.50
2023-05-12T00:34:20.574Z,9.75
2023-05-12T00:36:47.950Z,12.75
2023-05-12T00:39:15.372Z,12.25
2023-05-12T00:41:42.801Z,9.75
2023-05-12T00:44:10.611Z,10.00
2023-05-12T00:46:39.298Z,11.00
2023-05-12T00:49:07.910Z,9.25
2023-05-12T00:51:35.400Z,10.50
2023-05-12T00:54:02.826Z,11.50
2023-05-12T00:56:30.313Z,9.00
2023-05-12T00:58:57.644Z,13.00
2023-05-12T01:01:25.032Z,14.00
2023-05-12T01:03:52.982Z,17.00
2023-05-12T01:07:01.742Z,14.25
2023-05-12T01:09:29.623Z,12.00
2023-05-12T01:11:56.958Z,12.75
2023-05-12T01:14:24.366Z,10.25
2023-05-12T01:16:53.469Z,10.50
2023-05-12T01:19:52.212Z,13.00
2023-05-12T01:22:19.828Z,12.75
2023-05-12T01:24:57.745Z,10.25
2023-05-12T01:27:27.486Z,10.50
2023-05-12T01:29:58.657Z,11.25
2023-05-12T01:32:26.478Z,14.25
2023-05-12T01:34:53.892Z,22.50
2023-05-12T01:37:21.701Z,22.75
2023-05-12T01:39:49.055Z,24.25
2023-05-12T01:42:16.418Z,22.00
2023-05-12T01:44:43.882Z,17.75
2023-05-12T01:47:11.551Z,17.00
2023-05-12T01:49:38.985Z,17.00
2023-05-12T01:52:07.051Z,17.50
2023-05-12T01:54:34.655Z,16.25
2023-05-12T01:57:02.036Z,18.00
2023-05-12T01:59:29.683Z,14.50
2023-05-12T02:01:57.166Z,14.50
2023-05-12T02:04:24.864Z,18.75
2023-05-12T02:06:52.208Z,15.25
2023-05-12T02:09:19.671Z,16.25
2023-05-12T02:11:47.026Z,19.25
2023-05-12T02:14:14.378Z,19.00
2023-05-12T02:16:41.888Z,8.75
2023-05-12T02:19:09.517Z,17.50
2023-05-12T02:21:37.157Z,18.50
2023-05-12T02:24:04.711Z,17.25
2023-05-12T02:26:32.171Z,12.25
2023-05-12T02:28:59.522Z,18.25
2023-05-12T02:31:26.925Z,14.25
2023-05-12T02:33:54.435Z,15.25
2023-05-12T02:36:21.810Z,15.50
2023-05-12T02:38:49.245Z,14.75
2023-05-12T02:41:16.708Z,12.50
2023-05-12T02:43:44.183Z,16.75
2023-05-12T02:46:11.719Z,16.50
2023-05-12T02:48:39.055Z,14.25
2023-05-12T02:51:06.476Z,10.25
2023-05-12T02:53:33.999Z,14.50
2023-05-12T02:56:01.569Z,17.75
2023-05-12T02:58:28.989Z,14.50
2023-05-12T03:01:03.345Z,13.50
2023-05-12T03:03:37.358Z,14.25
2023-05-12T03:06:06.294Z,16.25
2023-05-12T03:08:33.902Z,14.00
2023-05-12T03:11:01.303Z,15.75
2023-05-12T03:13:29.953Z,14.25
2023-05-12T03:16:01.586Z,14.00
2023-05-12T03:18:29.397Z,17.75
2023-05-12T03:20:57.074Z,14.25
2023-05-12T03:23:24.815Z,16.50
2023-05-12T03:25:52.225Z,16.00
2023-05-12T03:28:19.908Z,15.75
2023-05-12T03:30:47.315Z,16.00
2023-05-12T03:33:14.831Z,15.00
2023-05-12T03:35:42.586Z,0.00
2023-05-12T03:38:10.011Z,17.00
2023-05-12T03:40:37.501Z,16.75
2023-05-12T03:43:04.892Z,16.75
2023-05-12T03:45:32.384Z,16.00
2023-05-12T03:48:00.083Z,16.75
2023-05-12T03:50:27.483Z,16.00
2023-05-12T03:52:56.201Z,17.50
2023-05-12T03:55:23.787Z,16.75
2023-05-12T03:57:51.541Z,18.00
2023-05-12T04:00:19.537Z,19.50
2023-05-12T04:02:47.220Z,18.75
2023-05-12T04:05:14.931Z,19.00
2023-05-12T04:07:44.334Z,16.00
2023-05-12T04:10:11.787Z,17.25
2023-05-12T04:12:39.384Z,16.00
2023-05-12T04:15:07.985Z,15.75
2023-05-12T04:17:36.334Z,15.75
2023-05-12T04:20:04.589Z,17.75
2023-05-12T04:22:32.179Z,17.25
2023-05-12T04:24:59.621Z,17.50
2023-05-12T04:27:26.990Z,16.75
2023-05-12T04:29:54.558Z,18.75
2023-05-12T04:32:22.038Z,17.25
2023-05-12T04:34:49.630Z,14.00
2023-05-12T04:37:17.240Z,17.75
2023-05-12T04:39:44.557Z,15.75
2023-05-12T04:42:11.944Z,18.75
2023-05-12T04:44:39.304Z,16.75
2023-05-12T04:47:06.759Z,16.75
2023-05-12T04:49:34.131Z,17.75
2023-05-12T04:52:01.786Z,15.75
2023-05-12T04:54:30.801Z,12.25
2023-05-12T04:56:58.451Z,14.50
2023-05-12T04:59:25.767Z,15.00
2023-05-12T05:01:53.356Z,15.00
2023-05-12T05:04:20.999Z,13.75
2023-05-12T05:06:48.560Z,17.00
2023-05-12T05:09:15.937Z,19.75
2023-05-12T05:11:43.926Z,19.00
2023-05-12T05:14:11.497Z,19.75
2023-05-12T05:16:39.141Z,12.33
2023-05-12T05:19:09.401Z,16.00
2023-05-12T05:21:46.778Z,16.00
2023-05-12T05:24:15.056Z,13.00
2023-05-12T05:26:42.628Z,1.00
2023-05-12T05:29:12.213Z,16.00
2023-05-12T05:31:39.571Z,12.67
2023-05-12T05:34:06.966Z,16.67
2023-05-12T05:36:34.455Z,7.67
2023-05-12T05:39:01.925Z,14.67
2023-05-12T05:41:29.358Z,14.00
2023-05-12T05:43:56.796Z,15.33
2023-05-12T05:46:27.112Z,14.00
2023-05-12T05:48:54.539Z,14.67
2023-05-12T05:51:21.936Z,8.67
2023-05-12T05:53:49.358Z,13.67
2023-05-12T05:56:16.893Z,12.00
2023-05-12T05:58:44.243Z,12.67
2023-05-12T06:01:11.833Z,14.67
2023-05-12T06:03:39.263Z,12.00
2023-05-12T06:06:06.975Z,13.00
2023-05-12T06:08:34.421Z,13.00
2023-05-12T06:11:01.841Z,14.00
2023-05-12T06:13:29.612Z,12.00
2023-05-12T06:15:57.089Z,14.00
2023-05-12T06:18:25.540Z,24.75
2023-05-12T06:20:55.284Z,13.50
2023-05-12T06:23:22.834Z,14.50
2023-05-12T06:25:50.620Z,13.00
2023-05-12T06:28:17.959Z,8.25
2023-05-12T06:30:45.432Z,14.50
2023-05-12T06:33:12.835Z,11.00
2023-05-12T06:35:40.274Z,18.50
2023-05-12T06:38:07.709Z,12.25
2023-05-12T06:40:35.598Z,8.75
2023-05-12T06:43:02.976Z,6.75
2023-05-12T06:45:30.474Z,8.00
2023-05-12T06:47:57.971Z,7.00
2023-05-12T06:50:25.389Z,6.50
2023-05-12T06:52:53.544Z,7.50
2023-05-12T06:55:21.346Z,7.50
2023-05-12T06:57:51.739Z,6.25
2023-05-12T07:00:19.414Z,7.50
2023-05-12T07:02:46.861Z,8.00
2023-05-12T07:05:15.519Z,6.75
2023-05-12T07:07:44.583Z,6.25
2023-05-12T07:10:12.595Z,4.75
2023-05-12T07:12:40.104Z,7.50
2023-05-12T07:15:08.619Z,5.50
2023-05-12T07:17:36.171Z,6.00
2023-05-12T07:20:05.058Z,7.50
2023-05-12T07:22:32.882Z,6.25
2023-05-12T07:25:00.268Z,7.00
2023-05-12T07:27:27.696Z,7.00
2023-05-12T07:29:55.092Z,6.25
2023-05-12T07:32:22.464Z,5.50
2023-05-12T07:34:49.815Z,7.75
2023-05-12T07:37:18.197Z,6.00
2023-05-12T07:39:45.786Z,6.20
2023-05-12T07:42:13.277Z,6.25
2023-05-12T07:44:41.422Z,6.60
2023-05-12T07:47:08.961Z,6.20
2023-05-12T07:49:36.547Z,8.00
2023-05-12T07:52:04.244Z,6.50
2023-05-12T07:54:32.318Z,6.20
2023-05-12T07:56:59.748Z,8.25
2023-05-12T07:59:27.201Z,8.25
2023-05-12T08:01:54.640Z,7.25
2023-05-12T08:04:22.423Z,7.00
2023-05-12T08:06:49.859Z,7.80
2023-05-12T08:09:18.314Z,6.40
2023-05-12T08:11:48.110Z,6.00
2023-05-12T08:14:17.579Z,4.60
2023-05-12T08:16:46.570Z,6.80
2023-05-12T08:19:14.178Z,4.80
2023-05-12T08:21:41.641Z,4.00
2023-05-12T08:24:09.299Z,7.00
2023-05-12T08:26:36.686Z,8.00
2023-05-12T08:29:05.920Z,5.00
2023-05-12T08:31:33.460Z,4.00
2023-05-12T08:34:09.590Z,6.00
2023-05-12T08:36:38.538Z,7.20
2023-05-12T08:39:06.268Z,6.00
2023-05-12T08:41:49.090Z,5.80
2023-05-12T08:44:17.870Z,6.00
2023-05-12T08:46:45.949Z,4.40
2023-05-12T08:49:17.129Z,5.20
2023-05-12T08:51:56.825Z,5.40
2023-05-12T08:54:27.675Z,4.80
2023-05-12T08:59:26.136Z,4.00
2023-05-12T09:01:55.442Z,4.00
2023-05-12T09:04:22.987Z,4.60
2023-05-12T09:06:52.033Z,5.80
2023-05-12T09:09:21.406Z,7.00
2023-05-12T09:11:53.379Z,4.20
2023-05-12T09:14:27.932Z,5.20
2023-05-12T09:17:03.735Z,5.00
2023-05-12T09:19:31.593Z,5.00
2023-05-12T09:22:00.497Z,10.20
2023-05-12T09:24:38.200Z,4.00
2023-05-12T09:27:06.101Z,4.20
2023-05-12T09:29:37.458Z,0.80
2023-05-12T09:32:07.220Z,4.60
2023-05-12T09:34:38.446Z,5.00
2023-05-12T09:37:07.405Z,4.80
2023-05-12T09:39:35.356Z,5.00
2023-05-12T09:42:02.745Z,7.00
2023-05-12T09:44:32.015Z,4.60
2023-05-12T09:47:10.410Z,3.80
2023-05-12T09:49:38.383Z,4.20
2023-05-12T09:52:07.248Z,4.20
2023-05-12T09:54:34.605Z,4.20
2023-05-12T09:57:05.092Z,3.00
2023-05-12T09:59:38.558Z,26.00
2023-05-12T10:02:09.615Z,25.50
2023-05-12T10:04:52.995Z,3.80
2023-05-12T10:07:24.022Z,2.80
2023-05-12T10:09:51.455Z,6.00
2023-05-12T10:12:19.207Z,3.20
2023-05-12T10:14:48.449Z,4.20
2023-05-12T10:17:17.077Z,4.60
2023-05-12T10:19:45.155Z,4.60
2023-05-12T10:22:16.132Z,3.80
2023-05-12T10:24:45.771Z,3.00
2023-05-12T10:27:17.280Z,4.40
2023-05-12T10:29:46.895Z,3.40
2023-05-12T10:32:14.712Z,3.40
2023-05-12T10:34:44.916Z,4.80
2023-05-12T10:37:13.207Z,1.60
2023-05-12T10:39:49.200Z,2.80
2023-05-12T10:42:25.160Z,4.20
2023-05-12T10:44:54.236Z,3.00
2023-05-12T10:47:27.185Z,4.00
2023-05-12T10:50:01.086Z,2.00
2023-05-12T10:52:28.706Z,3.40
2023-05-12T10:55:04.396Z,4.00
2023-05-12T10:57:33.453Z,2.40
2023-05-12T11:00:03.552Z,2.40
2023-05-12T11:02:34.669Z,5.00
2023-05-12T11:05:10.554Z,3.40
2023-05-12T11:07:39.673Z,3.00
2023-05-12T11:10:08.389Z,2.20
2023-05-12T11:12:37.402Z,4.40
2023-05-12T11:15:06.395Z,3.80
2023-05-12T11:17:37.879Z,3.00
2023-05-12T11:20:05.838Z,3.00
2023-05-12T11:22:33.978Z,2.00
2023-05-12T11:25:10.424Z,2.40
2023-05-12T11:27:44.841Z,3.40
2023-05-12T11:30:12.388Z,3.80
2023-05-12T11:32:40.110Z,3.60
2023-05-12T11:35:12.426Z,2.80
2023-05-12T11:37:41.668Z,5.00
2023-05-12T11:40:17.499Z,6.00
2023-05-12T11:42:48.959Z,3.60
2023-05-12T11:45:23.793Z,5.00
2023-05-12T11:47:51.682Z,3.00
2023-05-12T11:50:24.093Z,2.60
2023-05-12T11:52:53.119Z,3.00
2023-05-12T11:55:25.521Z,3.20
2023-05-12T11:57:58.782Z,4.00
2023-05-12T12:00:32.536Z,1.40
2023-05-12T12:03:08.409Z,2.20
2023-05-12T12:05:36.195Z,4.00
2023-05-12T12:08:12.574Z,3.00
2023-05-12T12:10:44.665Z,3.00
2023-05-12T12:13:13.850Z,2.80
2023-05-12T12:15:41.204Z,3.20
2023-05-12T12:18:10.326Z,3.20
2023-05-12T12:20:37.869Z,2.00
2023-05-12T12:23:05.298Z,3.00
2023-05-12T12:25:32.823Z,3.00
2023-05-12T12:28:00.189Z,5.00
2023-05-12T12:30:27.822Z,3.20
2023-05-12T12:32:55.246Z,4.00
2023-05-12T12:35:24.487Z,3.60
2023-05-12T12:37:52.048Z,4.00
2023-05-12T12:40:20.328Z,4.00
2023-05-12T12:42:47.908Z,3.80
2023-05-12T12:45:15.773Z,3.00
2023-05-12T12:47:44.319Z,5.60
2023-05-12T12:50:11.771Z,2.00
2023-05-12T12:52:39.549Z,3.80
2023-05-12T12:55:07.683Z,4.80
2023-05-12T12:57:35.506Z,4.00
2023-05-12T13:00:04.766Z,10.20
2023-05-12T13:02:33.648Z,2.80
2023-05-12T13:05:04.240Z,4.00
2023-05-12T13:07:32.107Z,3.40
2023-05-12T13:09:59.544Z,2.80
2023-05-12T13:12:28.314Z,3.60
2023-05-12T13:14:55.766Z,4.00
2023-05-12T13:17:23.452Z,3.00
2023-05-12T13:19:50.830Z,4.00
2023-05-12T13:22:18.721Z,3.40
2023-05-12T13:24:46.741Z,5.00
2023-05-12T13:27:14.208Z,4.00
2023-05-12T13:29:42.431Z,2.20
2023-05-12T13:32:10.063Z,4.00
2023-05-12T13:34:37.391Z,3.60
2023-05-12T13:37:05.002Z,3.60
2023-05-12T13:39:32.708Z,2.80
2023-05-12T13:42:00.109Z,2.40
2023-05-12T13:44:27.652Z,4.00
2023-05-12T13:46:55.001Z,4.40
2023-05-12T13:49:22.411Z,3.60
2023-05-12T13:51:49.812Z,3.80
2023-05-12T13:54:17.231Z,3.40
2023-05-12T13:56:44.571Z,3.20
2023-05-12T13:59:13.244Z,3.20
2023-05-12T14:01:41.255Z,5.60
2023-05-12T14:04:08.741Z,4.40
2023-05-12T14:06:36.521Z,3.80
2023-05-12T14:09:07.536Z,5.00
2023-05-12T14:11:35.382Z,5.00
2023-05-12T14:14:04.310Z,2.60
2023-05-12T14:16:32.744Z,4.00
2023-05-12T14:19:00.603Z,4.00
2023-05-12T14:21:28.291Z,4.00
2023-05-12T14:23:55.641Z,4.60
2023-05-12T14:26:25.596Z,8.00
2023-05-12T14:28:53.097Z,6.40
2023-05-12T14:31:20.632Z,6.20
2023-05-12T14:33:48.036Z,6.00
2023-05-12T14:36:15.388Z,5.60
2023-05-12T14:38:42.769Z,4.40
2023-05-12T14:41:10.115Z,5.20
2023-05-12T14:43:38.410Z,6.00
2023-05-12T14:46:06.625Z,7.00
2023-05-12T14:48:35.009Z,6.60
2023-05-12T14:51:03.436Z,8.80
2023-05-12T14:53:31.372Z,7.00
2023-05-12T14:55:58.775Z,9.20
2023-05-12T14:58:26.232Z,6.20
2023-05-12T15:00:53.921Z,5.80
2023-05-12T15:03:21.609Z,6.40
2023-05-12T15:06:04.916Z,5.80
2023-05-12T15:08:34.395Z,6.60
2023-05-12T15:11:01.759Z,4.80
2023-05-12T15:13:29.257Z,8.20
2023-05-12T15:15:57.118Z,5.60
2023-05-12T15:18:24.993Z,6.20
2023-05-12T15:20:52.417Z,6.00
2023-05-12T15:23:19.821Z,5.40
2023-05-12T15:25:47.736Z,7.40
2023-05-12T15:28:15.172Z,5.60
2023-05-12T15:30:42.683Z,5.40
2023-05-12T15:33:10.499Z,5.20
2023-05-12T15:35:39.691Z,4.20
2023-05-12T15:38:07.369Z,4.80
2023-05-12T15:40:35.086Z,6.40
2023-05-12T15:43:02.641Z,4.40
2023-05-12T15:45:31.464Z,3.60
2023-05-12T15:47:59.103Z,6.20
2023-05-12T15:50:26.568Z,6.00
2023-05-12T15:52:53.905Z,6.40
2023-05-12T15:55:21.624Z,6.80
2023-05-12T15:57:49.956Z,8.00
2023-05-12T16:00:18.067Z,6.60
2023-05-12T16:02:46.270Z,8.00
2023-05-12T16:05:13.759Z,8.20
2023-05-12T16:07:41.176Z,7.40
2023-05-12T16:10:09.182Z,9.40
2023-05-12T16:12:36.626Z,6.60
2023-05-12T16:15:05.100Z,4.80
2023-05-12T16:17:33.617Z,8.00
2023-05-12T16:20:02.142Z,6.40
2023-05-12T16:22:30.145Z,8.60
2023-05-12T16:24:57.693Z,11.20
2023-05-12T16:27:25.572Z,11.50
2023-05-12T16:29:53.752Z,9.75
2023-05-12T16:32:21.163Z,8.75
2023-05-12T16:34:48.661Z,11.00
2023-05-12T16:37:16.053Z,10.25
2023-05-12T16:39:43.527Z,9.75
2023-05-12T16:42:10.871Z,12.00
2023-05-12T16:44:38.373Z,10.00
2023-05-12T16:47:05.995Z,10.25
2023-05-12T16:49:33.388Z,10.25
2023-05-12T16:52:00.922Z,12.75
2023-05-12T16:54:30.654Z,12.25
2023-05-12T16:56:59.117Z,11.00
2023-05-12T16:59:26.584Z,11.50
2023-05-12T17:01:54.090Z,11.00
2023-05-12T17:04:21.592Z,8.50
2023-05-12T17:06:50.191Z,10.25
2023-05-12T17:09:18.214Z,14.50
2023-05-12T17:11:45.702Z,13.25
2023-05-12T17:14:13.557Z,14.25
2023-05-12T17:16:40.978Z,17.50
2023-05-12T17:21:39.277Z,13.75
2023-05-12T17:24:08.189Z,18.75
2023-05-12T17:26:35.878Z,14.00
2023-05-12T17:29:03.333Z,9.75
2023-05-12T17:31:30.916Z,9.75
2023-05-12T17:33:58.434Z,15.25
2023-05-12T17:36:26.038Z,13.25
2023-05-12T17:38:53.482Z,12.25
2023-05-12T17:41:21.680Z,16.25
2023-05-12T17:43:49.022Z,13.75
2023-05-12T17:46:16.793Z,18.00
2023-05-12T17:48:44.219Z,17.75
2023-05-12T17:51:11.773Z,15.50
2023-05-12T17:53:39.203Z,22.25
2023-05-12T17:56:06.781Z,20.00
2023-05-12T17:58:34.439Z,28.75
2023-05-12T18:01:02.229Z,23.00
2023-05-12T18:03:30.100Z,20.00
2023-05-12T18:05:57.533Z,22.50
2023-05-12T18:08:25.064Z,31.25
2023-05-12T18:10:52.528Z,28.00
2023-05-12T18:13:19.971Z,27.67
2023-05-12T18:15:50.123Z,20.25
2023-05-12T18:18:17.993Z,27.00
2023-05-12T18:20:45.500Z,28.75
2023-05-12T18:23:12.927Z,33.00
2023-05-12T18:25:40.408Z,34.00
2023-05-12T18:28:07.832Z,31.25
2023-05-12T18:30:35.805Z,34.00
2023-05-12T18:33:03.451Z,34.00
2023-05-12T18:35:31.579Z,32.00
2023-05-12T18:37:58.951Z,28.00
2023-05-12T18:40:26.434Z,31.25
2023-05-12T18:42:54.882Z,32.00
2023-05-12T18:45:23.473Z,31.25
2023-05-12T18:47:51.055Z,31.50
2023-05-12T18:50:18.487Z,31.00
2023-05-12T18:52:45.907Z,31.00
2023-05-12T18:55:13.213Z,32.00
2023-05-12T18:57:40.630Z,31.25
2023-05-12T19:00:10.120Z,32.00
2023-05-12T19:02:37.799Z,29.75
2023-05-12T19:05:05.691Z,30.00
2023-05-12T19:07:33.122Z,28.00
2023-05-12T19:10:00.533Z,30.75
2023-05-12T19:12:28.026Z,32.25
2023-05-12T19:14:55.568Z,29.25
2023-05-12T19:17:23.011Z,30.50
2023-05-12T19:19:50.732Z,29.75
2023-05-12T19:22:18.188Z,27.25
2023-05-12T19:24:45.915Z,28.25
2023-05-12T19:27:13.288Z,27.75
2023-05-12T19:29:40.695Z,27.50
2023-05-12T19:32:08.312Z,28.00
2023-05-12T19:34:36.639Z,29.00
2023-05-12T19:37:05.472Z,28.25
2023-05-12T19:39:32.926Z,23.00
2023-05-12T19:42:00.418Z,22.75
2023-05-12T19:44:29.903Z,23.50
2023-05-12T19:46:59.526Z,20.00
2023-05-12T19:49:26.978Z,23.00
2023-05-12T19:51:54.555Z,22.00
2023-05-12T19:54:21.968Z,22.00
2023-05-12T19:56:49.343Z,19.75
2023-05-12T19:59:16.725Z,24.00
2023-05-12T20:01:44.402Z,22.75
2023-05-12T20:04:11.843Z,22.75
2023-05-12T20:06:40.369Z,22.00
2023-05-12T20:09:08.160Z,22.25
2023-05-12T20:11:35.802Z,20.75
2023-05-12T20:14:03.136Z,21.50
2023-05-12T20:16:31.010Z,19.00
2023-05-12T20:18:59.559Z,17.50
2023-05-12T20:21:28.611Z,22.00
2023-05-12T20:23:55.928Z,17.25
2023-05-12T20:26:23.508Z,17.25
2023-05-12T20:28:51.433Z,20.50
2023-05-12T20:31:20.168Z,22.00
2023-05-12T20:33:47.610Z,21.75
2023-05-12T20:36:14.987Z,22.50
2023-05-12T20:38:42.316Z,20.25
2023-05-12T20:41:09.912Z,21.50
2023-05-12T20:43:37.448Z,24.00
2023-05-12T20:46:05.256Z,23.00
2023-05-12T20:48:33.201Z,21.50
2023-05-12T20:51:10.848Z,22.50
2023-05-12T20:53:38.775Z,23.00
2023-05-12T20:56:08.395Z,24.00
2023-05-12T20:58:36.780Z,24.00
2023-05-12T21:01:04.441Z,24.00
2023-05-12T21:03:36.019Z,25.75
2023-05-12T21:06:05.695Z,25.50
2023-05-12T21:08:33.845Z,24.00
2023-05-12T21:11:01.303Z,28.00
2023-05-12T21:13:28.822Z,22.25
2023-05-12T21:15:56.537Z,27.75
2023-05-12T21:18:24.500Z,27.00
2023-05-12T21:20:51.937Z,30.00
2023-05-12T21:23:19.258Z,29.25
2023-05-12T21:25:46.589Z,24.50
2023-05-12T21:28:14.019Z,26.25
2023-05-12T21:30:41.372Z,25.25
2023-05-12T21:33:08.862Z,29.00
2023-05-12T21:35:37.073Z,29.00
2023-05-12T21:38:06.089Z,28.00
2023-05-12T21:40:33.714Z,28.50
2023-05-12T21:43:01.031Z,35.00
2023-05-12T21:45:28.492Z,32.75
2023-05-12T21:47:55.913Z,31.00
2023-05-12T21:50:23.384Z,30.00
2023-05-12T21:52:51.092Z,32.00
2023-05-12T21:55:18.500Z,28.75
2023-05-12T21:57:45.960Z,29.75
2023-05-12T22:00:14.759Z,27.25
2023-05-12T22:02:43.153Z,29.00
2023-05-12T22:05:10.678Z,30.00
2023-05-12T22:07:38.472Z,28.00
2023-05-12T22:10:06.616Z,27.00
2023-05-12T22:12:34.689Z,27.50
2023-05-12T22:15:02.218Z,29.00
2023-05-12T22:17:29.755Z,26.75
2023-05-12T22:19:57.318Z,25.50
2023-05-12T22:22:24.799Z,26.25
2023-05-12T22:24:52.123Z,24.00
2023-05-12T22:27:22.496Z,23.50
2023-05-12T22:29:49.879Z,23.00
2023-05-12T22:32:17.291Z,25.00
2023-05-12T22:34:44.730Z,24.75
2023-05-12T22:37:12.100Z,21.25
2023-05-12T22:39:39.595Z,24.00
2023-05-12T22:42:07.068Z,21.75
2023-05-12T22:44:35.528Z,0.00
2023-05-12T22:47:02.909Z,23.25
2023-05-12T22:49:30.432Z,21.00
2023-05-12T22:51:58.094Z,20.75
2023-05-12T22:54:25.572Z,17.00
2023-05-12T22:56:52.922Z,22.75
2023-05-12T22:59:20.527Z,24.00
2023-05-12T23:01:47.923Z,23.00
2023-05-12T23:04:15.410Z,21.25
2023-05-12T23:06:42.795Z,23.25
2023-05-12T23:09:10.714Z,13.50
2023-05-12T23:11:38.501Z,20.50
2023-05-12T23:14:06.061Z,19.50
2023-05-12T23:16:33.580Z,21.00
2023-05-12T23:19:00.948Z,22.75
2023-05-12T23:21:28.437Z,21.00
2023-05-12T23:23:55.771Z,21.25
2023-05-12T23:26:23.201Z,23.00
2023-05-12T23:28:50.627Z,20.25
2023-05-12T23:31:18.070Z,20.75
2023-05-12T23:33:45.564Z,22.00
2023-05-12T23:36:13.654Z,17.25
2023-05-12T23:38:41.261Z,21.00
2023-05-12T23:41:08.712Z,21.00
2023-05-12T23:43:36.806Z,21.00
2023-05-12T23:46:04.601Z,22.00
2023-05-12T23:48:32.460Z,21.50
2023-05-12T23:50:59.785Z,23.00
2023-05-12T23:53:27.135Z,22.75
2023-05-12T23:55:54.663Z,23.75
2023-05-12T23:58:22.046Z,21.50
